createdAt,value
2022-09-27T00:02:56.303Z,2.28
2022-09-27T00:06:05.414Z,1.70
2022-09-27T00:09:08.163Z,2.00
2022-09-27T00:12:11.217Z,1.80
2022-09-27T00:15:14.009Z,1.45
2022-09-27T00:18:16.970Z,1.80
2022-09-27T00:21:21.214Z,1.77
2022-09-27T00:24:24.252Z,1.73
2022-09-27T00:27:28.140Z,1.70
2022-09-27T00:30:30.916Z,1.92
2022-09-27T00:33:33.690Z,2.00
2022-09-27T00:36:37.850Z,1.70
2022-09-27T00:39:40.519Z,1.85
2022-09-27T00:42:43.269Z,1.70
2022-09-27T00:45:51.202Z,1.50
2022-09-27T00:49:04.850Z,1.95
2022-09-27T00:52:14.140Z,1.60
2022-09-27T00:55:20.434Z,1.90
2022-09-27T00:58:28.540Z,1.83
2022-09-27T01:01:31.625Z,1.70
2022-09-27T01:04:36.544Z,1.77
2022-09-27T01:07:40.702Z,1.65
2022-09-27T01:10:53.346Z,1.40
2022-09-27T01:14:24.151Z,1.50
2022-09-27T01:17:41.424Z,1.65
2022-09-27T01:21:20.696Z,1.40
2022-09-27T01:24:37.414Z,1.55
2022-09-27T01:28:12.689Z,1.45
2022-09-27T01:31:25.447Z,1.17
2022-09-27T01:34:36.519Z,1.67
2022-09-27T01:37:48.604Z,1.70
2022-09-27T01:40:58.831Z,1.60
2022-09-27T01:44:05.068Z,1.50
2022-09-27T01:47:16.455Z,1.30
2022-09-27T01:50:25.545Z,1.35
2022-09-27T01:53:33.313Z,1.63
2022-09-27T01:56:41.692Z,1.30
2022-09-27T01:59:48.672Z,1.27
2022-09-27T02:02:58.266Z,1.30
2022-09-27T02:06:09.079Z,1.40
2022-09-27T02:09:15.547Z,1.55
2022-09-27T02:12:24.109Z,1.40
2022-09-27T02:15:28.114Z,1.30
2022-09-27T02:18:36.415Z,1.20
2022-09-27T02:21:48.281Z,1.20
2022-09-27T02:24:57.660Z,1.50
2022-09-27T02:28:10.589Z,1.20
2022-09-27T02:31:13.635Z,1.42
2022-09-27T02:34:22.350Z,1.33
2022-09-27T02:37:25.067Z,1.67
2022-09-27T02:40:33.257Z,1.58
2022-09-27T02:43:36.029Z,1.40
2022-09-27T02:47:14.418Z,1.52
2022-09-27T02:50:37.053Z,1.30
2022-09-27T02:53:49.119Z,1.27
2022-09-27T02:57:02.243Z,1.50
2022-09-27T03:00:08.921Z,1.20
2022-09-27T03:03:16.277Z,1.65
2022-09-27T03:06:23.775Z,1.23
2022-09-27T03:09:30.914Z,1.20
2022-09-27T03:12:34.740Z,1.50
2022-09-27T03:15:37.375Z,1.33
2022-09-27T03:18:40.208Z,1.42
2022-09-27T03:21:44.145Z,1.40
2022-09-27T03:24:46.864Z,1.10
2022-09-27T03:27:49.735Z,1.70
2022-09-27T03:30:52.843Z,1.50
2022-09-27T03:33:55.672Z,1.17
2022-09-27T03:36:59.628Z,1.60
2022-09-27T03:40:02.706Z,1.40
2022-09-27T03:43:05.350Z,1.43
2022-09-27T03:46:08.180Z,1.27
2022-09-27T03:49:11.033Z,1.60
2022-09-27T03:52:15.229Z,1.50
2022-09-27T03:55:18.048Z,1.90
2022-09-27T03:58:20.704Z,1.47
2022-09-27T04:01:23.458Z,1.60
2022-09-27T04:04:26.260Z,1.67
2022-09-27T04:07:31.236Z,1.40
2022-09-27T04:10:33.885Z,1.90
2022-09-27T04:13:36.500Z,1.93
2022-09-27T04:16:39.270Z,1.50
2022-09-27T04:19:41.945Z,1.80
2022-09-27T04:22:46.098Z,1.75
2022-09-27T04:25:49.077Z,2.10
2022-09-27T04:28:54.719Z,1.50
2022-09-27T04:31:57.779Z,2.03
2022-09-27T04:35:17.919Z,1.70
2022-09-27T04:38:24.207Z,1.98
2022-09-27T04:41:28.709Z,2.10
2022-09-27T04:44:31.611Z,1.83
2022-09-27T04:47:34.385Z,1.80
2022-09-27T04:50:37.877Z,2.00
2022-09-27T04:53:41.959Z,1.90
2022-09-27T04:56:44.577Z,2.20
2022-09-27T04:59:47.241Z,1.80
2022-09-27T05:02:50.142Z,2.00
2022-09-27T05:05:52.897Z,2.17
2022-09-27T05:08:58.507Z,3.08
2022-09-27T05:12:01.345Z,2.30
2022-09-27T05:15:04.582Z,3.20
2022-09-27T05:18:08.252Z,2.40
2022-09-27T05:21:11.041Z,4.30
2022-09-27T05:24:15.124Z,4.10
2022-09-27T05:27:20.253Z,2.10
2022-09-27T05:30:22.900Z,2.20
2022-09-27T05:33:25.685Z,2.60
2022-09-27T05:36:28.540Z,3.08
2022-09-27T05:39:32.509Z,2.50
2022-09-27T05:42:35.997Z,3.23
2022-09-27T05:45:38.915Z,2.20
2022-09-27T05:48:41.641Z,2.70
2022-09-27T05:51:44.419Z,2.70
2022-09-27T05:54:48.398Z,2.35
2022-09-27T05:57:58.806Z,2.23
2022-09-27T06:01:01.598Z,2.20
2022-09-27T06:04:05.553Z,2.40
2022-09-27T06:07:08.390Z,2.15
2022-09-27T06:10:12.463Z,2.40
2022-09-27T06:13:17.299Z,2.67
2022-09-27T06:16:20.065Z,3.00
2022-09-27T06:19:22.850Z,2.38
2022-09-27T06:22:25.549Z,2.00
2022-09-27T06:25:29.579Z,2.42
2022-09-27T06:28:32.695Z,2.37
2022-09-27T06:31:35.337Z,2.80
2022-09-27T06:34:38.093Z,2.47
2022-09-27T06:37:40.714Z,3.00
2022-09-27T06:40:46.517Z,2.60
2022-09-27T06:43:49.492Z,2.30
2022-09-27T06:46:52.858Z,3.23
2022-09-27T06:49:55.511Z,2.20
2022-09-27T06:52:58.129Z,2.55
2022-09-27T06:56:03.117Z,2.10
2022-09-27T06:59:23.350Z,2.60
2022-09-27T07:02:27.841Z,2.23
2022-09-27T07:05:31.385Z,2.20
2022-09-27T07:08:35.898Z,2.55
2022-09-27T07:11:40.200Z,2.15
2022-09-27T07:14:42.833Z,2.10
2022-09-27T07:17:45.622Z,2.10
2022-09-27T07:20:48.260Z,2.28
2022-09-27T07:23:51.116Z,2.55
2022-09-27T07:26:55.060Z,2.60
2022-09-27T07:29:57.697Z,2.50
2022-09-27T07:33:00.804Z,2.17
2022-09-27T07:36:08.728Z,2.30
2022-09-27T07:39:11.602Z,2.10
2022-09-27T07:42:15.606Z,2.00
2022-09-27T07:45:18.651Z,2.00
2022-09-27T07:48:21.376Z,2.10
2022-09-27T07:51:24.309Z,2.05
2022-09-27T07:54:27.049Z,2.40
2022-09-27T07:57:31.016Z,2.20
2022-09-27T08:00:33.883Z,2.63
2022-09-27T08:03:36.514Z,2.40
2022-09-27T08:06:39.373Z,2.60
2022-09-27T08:09:42.026Z,3.97
2022-09-27T08:12:46.439Z,2.15
2022-09-27T08:15:50.936Z,2.37
2022-09-27T08:18:54.385Z,2.57
2022-09-27T08:21:58.989Z,2.13
2022-09-27T08:25:01.796Z,2.05
2022-09-27T08:28:06.365Z,2.40
2022-09-27T08:31:08.943Z,2.70
2022-09-27T08:34:11.596Z,2.07
2022-09-27T08:37:14.425Z,2.20
2022-09-27T08:40:18.227Z,2.70
2022-09-27T08:43:36.758Z,2.15
2022-09-27T08:46:50.893Z,2.50
2022-09-27T08:49:59.678Z,2.37
2022-09-27T08:53:08.632Z,2.50
2022-09-27T08:56:13.129Z,6.18
2022-09-27T08:59:21.825Z,2.50
2022-09-27T09:02:26.442Z,2.20
2022-09-27T09:05:32.047Z,2.10
2022-09-27T09:08:43.575Z,2.67
2022-09-27T09:12:17.748Z,2.55
2022-09-27T09:15:31.020Z,2.50
2022-09-27T09:18:54.357Z,2.20
2022-09-27T09:22:05.402Z,2.40
2022-09-27T09:25:22.595Z,4.93
2022-09-27T09:28:37.321Z,2.92
2022-09-27T09:31:48.731Z,2.53
2022-09-27T09:34:58.388Z,2.43
2022-09-27T09:38:06.491Z,3.70
2022-09-27T09:41:17.514Z,2.40
2022-09-27T09:44:26.009Z,2.60
2022-09-27T09:47:37.307Z,2.70
2022-09-27T09:50:45.337Z,2.57
2022-09-27T09:53:54.026Z,3.00
2022-09-27T09:57:03.483Z,2.40
2022-09-27T10:00:14.246Z,2.80
2022-09-27T10:03:19.590Z,2.95
2022-09-27T10:06:22.509Z,2.70
2022-09-27T10:09:27.465Z,2.10
2022-09-27T10:12:30.447Z,2.58
2022-09-27T10:15:34.229Z,2.20
2022-09-27T10:18:44.110Z,2.60
2022-09-27T10:21:52.144Z,4.67
2022-09-27T10:24:57.877Z,2.70
2022-09-27T10:28:01.145Z,2.65
2022-09-27T10:31:06.131Z,2.40
2022-09-27T10:34:20.145Z,2.88
2022-09-27T10:37:24.730Z,3.40
2022-09-27T10:40:30.474Z,2.63
2022-09-27T10:43:35.272Z,2.58
2022-09-27T10:46:39.032Z,2.70
2022-09-27T10:49:45.058Z,2.10
2022-09-27T10:52:47.859Z,2.50
2022-09-27T10:55:52.794Z,2.10
2022-09-27T10:58:56.122Z,2.28
2022-09-27T11:01:59.695Z,2.28
2022-09-27T11:05:15.358Z,4.85
2022-09-27T11:08:24.533Z,4.30
2022-09-27T11:11:29.805Z,2.73
2022-09-27T11:14:33.017Z,3.00
2022-09-27T11:17:45.570Z,2.28
2022-09-27T11:20:54.539Z,2.30
2022-09-27T11:24:13.311Z,3.90
2022-09-27T11:27:26.542Z,3.00
2022-09-27T11:30:38.180Z,1.90
2022-09-27T11:33:56.823Z,2.40
2022-09-27T11:37:17.699Z,1.00
2022-09-27T11:40:31.759Z,1.03
2022-09-27T11:44:04.643Z,0.63
2022-09-27T11:47:17.589Z,0.50
2022-09-27T11:50:51.213Z,0.70
2022-09-27T11:54:07.159Z,0.75
2022-09-27T11:57:19.007Z,0.60
2022-09-27T12:00:24.559Z,0.70
2022-09-27T12:03:42.460Z,0.50
2022-09-27T12:06:55.895Z,0.60
2022-09-27T12:10:04.769Z,0.80
2022-09-27T12:13:11.441Z,0.73
2022-09-27T12:16:17.499Z,0.70
2022-09-27T12:19:24.576Z,0.70
2022-09-27T12:22:57.202Z,0.95
2022-09-27T12:26:04.040Z,1.10
2022-09-27T12:29:13.861Z,0.80
2022-09-27T12:32:22.034Z,0.80
2022-09-27T12:35:28.765Z,0.65
2022-09-27T12:38:41.453Z,2.20
2022-09-27T12:41:52.623Z,1.40
2022-09-27T12:44:55.278Z,1.20
2022-09-27T12:48:08.997Z,1.00
2022-09-27T12:51:13.731Z,2.00
2022-09-27T12:54:34.981Z,1.20
2022-09-27T12:57:50.573Z,1.10
2022-09-27T13:00:59.288Z,1.20
2022-09-27T13:04:16.485Z,1.40
2022-09-27T13:07:32.308Z,1.73
2022-09-27T13:10:47.807Z,1.50
2022-09-27T13:13:56.222Z,1.00
2022-09-27T13:16:59.052Z,0.90
2022-09-27T13:20:49.338Z,0.80
2022-09-27T13:23:53.438Z,0.80
2022-09-27T13:26:56.468Z,0.82
2022-09-27T13:30:48.442Z,1.00
2022-09-27T13:33:52.688Z,1.00
2022-09-27T13:36:55.291Z,1.00
2022-09-27T13:40:21.767Z,4.82
2022-09-27T13:44:07.322Z,4.65
2022-09-27T13:47:33.039Z,1.75
2022-09-27T13:50:46.562Z,1.80
2022-09-27T13:53:58.916Z,3.20
2022-09-27T13:57:06.538Z,3.38
2022-09-27T14:00:15.237Z,2.38
2022-09-27T14:03:52.876Z,1.38
2022-09-27T14:07:00.017Z,1.50
2022-09-27T14:10:04.221Z,1.30
2022-09-27T14:13:08.265Z,1.13
2022-09-27T14:16:16.448Z,1.55
2022-09-27T14:19:22.679Z,1.70
2022-09-27T14:22:25.977Z,1.13
2022-09-27T14:25:28.915Z,1.10
2022-09-27T14:28:42.230Z,1.10
2022-09-27T14:31:45.009Z,1.25
2022-09-27T14:34:47.841Z,1.77
2022-09-27T14:37:52.789Z,1.40
2022-09-27T14:41:00.216Z,1.37
2022-09-27T14:44:04.273Z,1.20
2022-09-27T14:47:10.705Z,0.93
2022-09-27T14:50:19.495Z,1.30
2022-09-27T14:53:24.141Z,1.50
2022-09-27T14:56:30.363Z,1.30
2022-09-27T14:59:37.840Z,1.30
2022-09-27T15:02:42.694Z,1.17
2022-09-27T15:05:45.753Z,3.58
2022-09-27T15:08:50.413Z,1.90
2022-09-27T15:12:00.857Z,1.20
2022-09-27T15:15:07.101Z,1.20
2022-09-27T15:18:31.835Z,1.40
2022-09-27T15:21:37.423Z,1.60
2022-09-27T15:24:44.545Z,1.50
2022-09-27T15:27:52.619Z,1.50
2022-09-27T15:30:58.282Z,1.60
2022-09-27T15:34:01.218Z,2.50
2022-09-27T15:37:06.478Z,3.13
2022-09-27T15:40:49.461Z,2.83
2022-09-27T15:43:53.489Z,2.50
2022-09-27T15:46:57.347Z,3.10
2022-09-27T15:50:00.404Z,4.30
2022-09-27T15:53:05.443Z,2.55
2022-09-27T15:56:08.148Z,1.83
2022-09-27T15:59:17.927Z,1.50
2022-09-27T16:02:21.839Z,1.48
2022-09-27T16:05:24.951Z,1.10
2022-09-27T16:08:27.902Z,1.23
2022-09-27T16:11:30.599Z,1.30
2022-09-27T16:14:33.024Z,1.00
2022-09-27T16:17:38.625Z,1.00
2022-09-27T16:20:41.898Z,5.47
2022-09-27T16:23:44.560Z,4.63
2022-09-27T16:26:47.125Z,2.20
2022-09-27T16:29:49.946Z,3.50
2022-09-27T16:32:54.475Z,4.77
2022-09-27T16:35:57.058Z,14.38
2022-09-27T16:38:59.816Z,10.55
2022-09-27T16:42:05.792Z,11.90
2022-09-27T16:45:12.645Z,19.20
2022-09-27T16:48:18.511Z,12.40
2022-09-27T16:51:40.148Z,7.88
2022-09-27T16:54:43.637Z,4.55
2022-09-27T16:57:46.214Z,4.65
2022-09-27T17:00:49.393Z,2.47
2022-09-27T17:03:57.482Z,2.80
2022-09-27T17:07:00.986Z,1.90
2022-09-27T17:10:03.571Z,1.47
2022-09-27T17:13:07.293Z,2.40
2022-09-27T17:16:10.906Z,2.25
2022-09-27T17:19:15.838Z,1.70
2022-09-27T17:22:19.037Z,1.75
2022-09-27T17:25:21.621Z,1.97
2022-09-27T17:28:24.497Z,1.70
2022-09-27T17:31:27.508Z,3.10
2022-09-27T17:34:32.250Z,3.83
2022-09-27T17:37:34.810Z,4.43
2022-09-27T17:40:37.941Z,5.10
2022-09-27T17:43:43.744Z,4.95
2022-09-27T17:46:47.687Z,4.93
2022-09-27T17:50:09.087Z,3.33
2022-09-27T17:53:11.666Z,3.10
2022-09-27T17:56:14.804Z,2.70
2022-09-27T17:59:18.633Z,2.33
2022-09-27T18:02:21.606Z,1.80
2022-09-27T18:05:25.752Z,1.80
2022-09-27T18:08:32.256Z,1.80
2022-09-27T18:11:35.476Z,1.80
2022-09-27T18:14:38.037Z,1.20
2022-09-27T18:17:40.735Z,1.38
2022-09-27T18:20:44.624Z,2.10
2022-09-27T18:23:47.329Z,2.35
2022-09-27T18:26:49.920Z,5.00
2022-09-27T18:29:52.600Z,5.53
2022-09-27T18:32:55.166Z,5.70
2022-09-27T18:36:03.091Z,4.63
2022-09-27T18:39:09.377Z,4.10
2022-09-27T18:42:11.949Z,3.20
2022-09-27T18:45:14.651Z,4.18
2022-09-27T18:48:17.269Z,4.72
2022-09-27T18:51:24.339Z,3.72
2022-09-27T18:54:26.997Z,2.90
2022-09-27T18:57:32.872Z,2.03
2022-09-27T19:00:35.620Z,2.33
2022-09-27T19:03:38.431Z,2.40
2022-09-27T19:06:43.617Z,1.98
2022-09-27T19:09:46.178Z,1.90
2022-09-27T19:12:49.034Z,1.50
2022-09-27T19:15:55.797Z,1.30
2022-09-27T19:18:58.546Z,1.70
2022-09-27T19:22:02.635Z,1.50
2022-09-27T19:25:06.175Z,1.38
2022-09-27T19:28:08.847Z,1.30
2022-09-27T19:31:14.481Z,1.33
2022-09-27T19:34:17.379Z,1.50
2022-09-27T19:37:21.368Z,1.45
2022-09-27T19:40:23.987Z,1.63
2022-09-27T19:43:26.772Z,1.40
2022-09-27T19:46:29.472Z,1.45
2022-09-27T19:49:32.225Z,1.40
2022-09-27T19:52:36.133Z,1.90
2022-09-27T19:55:38.821Z,1.63
2022-09-27T19:58:42.628Z,1.63
2022-09-27T20:01:45.347Z,1.73
2022-09-27T20:04:47.969Z,1.80
2022-09-27T20:07:53.863Z,1.90
2022-09-27T20:11:01.333Z,2.78
2022-09-27T20:14:06.439Z,2.40
2022-09-27T20:17:09.644Z,2.08
2022-09-27T20:20:12.193Z,1.90
2022-09-27T20:23:20.007Z,2.00
2022-09-27T20:26:24.473Z,2.08
2022-09-27T20:29:27.136Z,2.00
2022-09-27T20:32:29.885Z,1.67
2022-09-27T20:35:32.923Z,1.95
2022-09-27T20:38:37.047Z,1.90
2022-09-27T20:41:41.889Z,1.42
2022-09-27T20:44:44.659Z,1.88
2022-09-27T20:47:47.225Z,1.65
2022-09-27T20:50:49.938Z,1.50
2022-09-27T20:53:54.399Z,1.57
2022-09-27T20:56:57.104Z,1.38
2022-09-27T20:59:59.692Z,1.75
2022-09-27T21:03:02.367Z,1.40
2022-09-27T21:06:05.667Z,1.67
2022-09-27T21:09:10.744Z,1.07
2022-09-27T21:12:13.455Z,1.17
2022-09-27T21:15:16.255Z,1.23
2022-09-27T21:18:20.155Z,1.13
2022-09-27T21:21:24.623Z,0.95
2022-09-27T21:24:28.623Z,1.00
2022-09-27T21:27:31.201Z,1.08
2022-09-27T21:30:36.344Z,1.20
2022-09-27T21:33:39.702Z,0.88
2022-09-27T21:36:42.440Z,1.20
2022-09-27T21:39:46.412Z,0.80
2022-09-27T21:42:56.929Z,1.13
2022-09-27T21:46:04.457Z,1.00
2022-09-27T21:49:07.383Z,1.10
2022-09-27T21:52:10.069Z,0.80
2022-09-27T21:55:14.050Z,0.90
2022-09-27T21:58:16.810Z,0.90
2022-09-27T22:01:21.730Z,1.20
2022-09-27T22:04:24.482Z,0.90
2022-09-27T22:07:27.058Z,1.30
2022-09-27T22:10:31.101Z,1.00
2022-09-27T22:13:34.309Z,1.08
2022-09-27T22:16:37.363Z,1.00
2022-09-27T22:19:40.117Z,1.15
2022-09-27T22:22:42.687Z,1.10
2022-09-27T22:25:47.004Z,1.00
2022-09-27T22:28:50.043Z,1.20
2022-09-27T22:31:52.727Z,1.20
2022-09-27T22:34:55.309Z,1.00
2022-09-27T22:37:58.213Z,1.33
2022-09-27T22:41:03.542Z,1.23
2022-09-27T22:44:06.255Z,0.90
2022-09-27T22:47:09.092Z,1.00
2022-09-27T22:50:11.791Z,1.10
2022-09-27T22:53:15.287Z,1.30
2022-09-27T22:56:21.432Z,1.20
2022-09-27T22:59:24.975Z,1.27
2022-09-27T23:02:27.519Z,0.90
2022-09-27T23:05:30.183Z,1.20
2022-09-27T23:08:35.187Z,1.10
2022-09-27T23:11:39.249Z,1.20
2022-09-27T23:14:42.677Z,0.90
2022-09-27T23:17:45.574Z,0.98
2022-09-27T23:20:48.092Z,0.90
2022-09-27T23:23:52.899Z,1.30
2022-09-27T23:27:10.704Z,0.73
2022-09-27T23:30:14.456Z,1.02
2022-09-27T23:33:17.035Z,1.10
2022-09-27T23:36:22.616Z,0.80
2022-09-27T23:39:25.132Z,0.90
2022-09-27T23:42:29.169Z,1.07
2022-09-27T23:45:33.399Z,1.35
2022-09-27T23:48:36.814Z,1.10
2022-09-27T23:51:39.493Z,1.17
2022-09-27T23:54:42.064Z,1.30
2022-09-27T23:57:46.088Z,1.10
